Time;durP1;ratioP1;P1;durP2;ratioP2;P2;SDS_P1;SDS_P2;PMS_P1;PMS_P2;Temp;Humidity;BMP_temperature;BMP_pressure;BME280_temperature;BME280_humidity;BME280_pressure;Samples;Min_cycle;Max_cycle;Signal;HPM_P1;HPM_P2
2021/12/25 00:01:47;;;;;;;1.08;0.80;;;;;;;;;;5053184;28;20148;-74
2021/12/25 00:04:14;;;;;;;2.67;1.00;;;;;;;;;;5052839;28;20060;-74
2021/12/25 00:06:41;;;;;;;1.95;1.00;;;14.50;64.20;;;;;;5052717;28;20136;-74
2021/12/25 00:09:08;;;;;;;3.38;1.30;;;;;;;;;;5052864;28;20140;-74
2021/12/25 00:11:35;;;;;;;3.17;1.20;;;14.50;64.50;;;;;;5050278;28;20133;-74
2021/12/25 00:14:09;;;;;;;1.60;0.88;;;14.30;64.60;;;;;;5052607;28;20417;-74
2021/12/25 00:16:38;;;;;;;4.03;1.13;;;14.30;56.50;;;;;;5052839;28;20146;-74
2021/12/25 00:19:06;;;;;;;1.25;0.90;;;14.40;57.40;;;;;;5052573;28;20176;-74
2021/12/25 00:21:33;;;;;;;2.22;1.00;;;13.80;64.10;;;;;;5052720;28;20133;-74
2021/12/25 00:24:00;;;;;;;2.45;1.00;;;;;;;;;;5052366;28;20057;-74
2021/12/25 00:29:30;;;;;;;2.75;1.05;;;;;;;;;;5049366;28;20056;-74
2021/12/25 00:32:12;;;;;;;1.35;0.95;;;14.20;64.40;;;;;;5052446;28;20057;-74
2021/12/25 00:34:39;;;;;;;1.52;0.90;;;13.60;58.10;;;;;;5052697;28;20383;-74
2021/12/25 00:37:06;;;;;;;1.35;0.88;;;14.20;64.30;;;;;;5052417;28;20049;-74
2021/12/25 00:39:33;;;;;;;2.40;1.00;;;14.20;62.80;;;;;;5052311;28;20139;-74
2021/12/25 00:42:00;;;;;;;1.85;1.05;;;;;;;;;;5053541;28;20151;-74
2021/12/25 00:44:28;;;;;;;1.80;1.00;;;14.00;64.50;;;;;;5051929;28;20083;-74
2021/12/25 00:46:54;;;;;;;1.35;0.90;;;14.20;64.70;;;;;;5051714;28;20056;-74
2021/12/25 00:49:23;;;;;;;3.55;1.00;;;14.00;56.90;;;;;;5052265;28;20146;-74
2021/12/25 00:51:50;;;;;;;2.05;1.10;;;;;;;;;;5052267;28;20159;-74
2021/12/25 00:54:17;;;;;;;1.98;1.00;;;14.10;64.60;;;;;;5052374;28;20144;-74
2021/12/25 00:56:44;;;;;;;1.70;0.98;;;;;;;;;;5051819;28;20136;-74
2021/12/25 00:59:10;;;;;;;3.22;1.10;;;13.90;64.50;;;;;;5052099;28;20088;-74
2021/12/25 01:01:38;;;;;;;1.95;0.85;;;;;;;;;;5051887;28;20259;-74
2021/12/25 01:04:05;;;;;;;1.65;1.05;;;13.90;56.70;;;;;;5048513;28;20140;-74
2021/12/25 01:06:33;;;;;;;1.88;0.98;;;13.90;56.10;;;;;;5031561;28;20053;-74
2021/12/25 01:09:00;;;;;;;2.15;0.93;;;;;;;;;;5031542;28;20136;-74
2021/12/25 01:11:29;;;;;;;1.63;0.95;;;13.70;64.10;;;;;;5032035;28;20136;-74
2021/12/25 01:14:02;;;;;;;1.27;0.85;;;;;;;;;;5031857;28;20502;-74
2021/12/25 01:16:56;;;;;;;2.75;0.80;;;14.00;64.60;;;;;;5031702;28;20546;-74
2021/12/25 01:22:18;;;;;;;1.13;0.70;;;13.80;64.40;;;;;;5047681;28;20040;-74
2021/12/25 01:30:17;;;;;;;2.63;1.10;;;13.80;64.50;;;;;;5051469;28;20564;-74
2021/12/25 01:36:11;;;;;;;2.60;1.00;;;13.60;64.20;;;;;;5048174;28;20041;-74
2021/12/25 01:38:53;;;;;;;1.67;0.93;;;13.70;55.90;;;;;;5051157;28;20060;-74
2021/12/25 01:41:42;;;;;;;2.33;1.05;;;13.70;64.40;;;;;;5051387;28;20076;-74
2021/12/25 01:49:36;;;;;;;2.47;1.20;;;13.70;64.20;;;;;;5050619;28;20049;-74
2021/12/25 01:52:03;;;;;;;1.65;0.90;;;13.60;64.10;;;;;;5050760;28;20131;-74
2021/12/25 01:54:31;;;;;;;1.50;0.90;;;13.60;55.70;;;;;;5050837;28;20139;-74
2021/12/25 01:56:58;;;;;;;1.35;0.88;;;13.30;64.10;;;;;;5050943;28;20056;-74
2021/12/25 01:59:24;;;;;;;2.60;1.33;;;13.80;64.20;;;;;;5050517;28;20135;-74
2021/12/25 02:01:51;;;;;;;1.05;0.85;;;13.60;57.50;;;;;;5050992;28;20550;-74
2021/12/25 02:04:18;;;;;;;2.45;1.00;;;13.60;55.90;;;;;;5050996;28;20091;-74
2021/12/25 02:06:45;;;;;;;1.10;0.85;;;13.50;64.30;;;;;;5050440;28;20128;-74
2021/12/25 02:09:11;;;;;;;1.40;0.90;;;13.30;58.00;;;;;;5050388;28;20132;-74
2021/12/25 02:11:39;;;;;;;1.02;0.80;;;13.60;64.30;;;;;;5050568;28;20497;-74
2021/12/25 02:14:06;;;;;;;1.05;0.77;;;13.60;64.10;;;;;;5050836;28;20165;-74
2021/12/25 02:16:49;;;;;;;1.13;0.73;;;13.50;64.40;;;;;;5050616;28;20133;-74
2021/12/25 02:19:23;;;;;;;1.38;1.02;;;;;;;;;;5050740;28;20065;-74
2021/12/25 02:21:57;;;;;;;1.13;0.80;;;13.50;55.60;;;;;;5050644;28;20290;-74
2021/12/25 02:24:24;;;;;;;2.20;0.90;;;13.50;58.70;;;;;;5050859;28;20383;-74
2021/12/25 02:26:50;;;;;;;1.20;0.80;;;13.50;64.40;;;;;;5049888;28;20140;-74
2021/12/25 02:29:17;;;;;;;1.80;0.85;;;13.40;64.20;;;;;;5050447;28;20139;-74
2021/12/25 02:31:44;;;;;;;0.82;0.80;;;;;;;;;;5050665;28;20136;-74
2021/12/25 02:34:12;;;;;;;2.20;1.00;;;13.50;64.40;;;;;;5050403;28;20545;-74
2021/12/25 02:36:39;;;;;;;1.02;0.77;;;13.40;64.40;;;;;;5050487;28;20059;-74
2021/12/25 02:39:07;;;;;;;2.35;0.98;;;13.50;55.50;;;;;;5050371;28;20088;-74
2021/12/25 02:41:34;;;;;;;1.50;0.80;;;;;;;;;;5050333;28;20135;-74
2021/12/25 02:44:01;;;;;;;1.00;0.75;;;13.60;64.10;;;;;;5050252;28;20136;-74
2021/12/25 02:46:28;;;;;;;1.55;1.00;;;13.50;64.10;;;;;;5049987;28;20095;-74
2021/12/25 02:48:57;;;;;;;0.95;0.80;;;13.50;63.90;;;;;;5054065;28;20063;-74
2021/12/25 02:51:24;;;;;;;1.40;0.80;;;13.40;63.80;;;;;;5054625;28;20057;-74
2021/12/25 02:53:51;;;;;;;1.00;0.90;;;;;;;;;;5054554;28;20143;-74
2021/12/25 02:56:19;;;;;;;1.45;1.05;;;13.40;63.60;;;;;;5054230;28;20510;-74
2021/12/25 02:58:45;;;;;;;1.40;0.90;;;13.70;63.80;;;;;;5053816;28;20463;-74
2021/12/25 03:01:13;;;;;;;1.23;0.70;;;13.80;63.90;;;;;;5053927;28;20132;-74
2021/12/25 03:03:40;;;;;;;1.13;0.77;;;13.90;57.20;;;;;;5054051;28;20132;-74
2021/12/25 03:06:08;;;;;;;1.02;0.82;;;13.50;60.80;;;;;;5053943;28;20132;-74
2021/12/25 03:08:34;;;;;;;1.30;0.80;;;13.70;63.70;;;;;;5054129;28;20083;-74
2021/12/25 03:11:03;;;;;;;1.38;0.90;;;13.60;61.50;;;;;;5054107;28;20448;-74
2021/12/25 03:13:34;;;;;;;0.88;0.70;;;13.90;64.00;;;;;;5053855;28;20103;-74
2021/12/25 03:16:02;;;;;;;1.10;0.70;;;13.60;59.80;;;;;;5053633;28;20128;-74
2021/12/25 03:18:31;;;;;;;0.70;0.70;;;13.30;63.30;;;;;;5053539;28;20057;-74
2021/12/25 03:20:59;;;;;;;1.15;0.80;;;13.80;63.40;;;;;;5053579;28;20136;-74
2021/12/25 03:23:26;;;;;;;1.92;0.80;;;13.50;59.60;;;;;;5053328;28;20052;-74
2021/12/25 03:25:53;;;;;;;1.77;0.80;;;13.80;63.40;;;;;;5053324;28;20067;-74
2021/12/25 03:28:22;;;;;;;1.08;0.80;;;13.40;63.30;;;;;;5053821;28;20143;-74
2021/12/25 03:30:50;;;;;;;1.48;0.80;;;13.60;63.40;;;;;;5053791;28;20147;-74
2021/12/25 03:33:18;;;;;;;1.25;0.85;;;13.80;63.30;;;;;;5053800;28;20057;-74
2021/12/25 03:35:45;;;;;;;1.63;1.00;;;13.80;63.50;;;;;;5053269;28;20128;-74
2021/12/25 03:38:13;;;;;;;1.30;0.77;;;13.80;54.60;;;;;;5053538;28;20135;-74
2021/12/25 03:40:40;;;;;;;0.77;0.70;;;13.80;59.70;;;;;;5053514;28;20152;-74
2021/12/25 03:43:07;;;;;;;1.10;0.90;;;13.80;63.20;;;;;;5050092;28;20137;-74
2021/12/25 03:45:34;;;;;;;1.10;0.90;;;;;;;;;;5045342;28;20132;-74
2021/12/25 03:48:08;;;;;;;0.85;0.70;;;13.80;63.30;;;;;;5053341;28;20088;-74
2021/12/25 03:53:38;;;;;;;1.27;0.85;;;13.80;63.10;;;;;;5053262;28;20084;-74
2021/12/25 03:58:49;;;;;;;1.15;0.90;;;13.90;63.40;;;;;;5052428;28;20378;-74
2021/12/25 04:01:28;;;;;;;1.77;0.80;;;;;;;;;;5053263;28;20111;-74
2021/12/25 04:04:11;;;;;;;1.35;0.80;;;13.80;63.00;;;;;;5053280;28;20436;-74
2021/12/25 04:06:44;;;;;;;0.95;0.80;;;13.90;61.90;;;;;;5052811;28;20076;-74
2021/12/25 04:09:21;;;;;;;1.27;0.80;;;13.40;62.90;;;;;;5052900;28;20052;-74
2021/12/25 04:11:48;;;;;;;1.33;0.70;;;13.70;62.90;;;;;;5052839;28;20080;-74
2021/12/25 04:14:15;;;;;;;1.45;1.00;;;;;;;;;;5052892;28;20539;-74
2021/12/25 04:16:41;;;;;;;1.42;0.80;;;13.50;63.00;;;;;;5052775;28;20083;-74
2021/12/25 04:19:09;;;;;;;1.35;1.05;;;13.80;62.90;;;;;;5052812;28;20622;-74
2021/12/25 04:21:41;;;;;;;1.00;0.70;;;;;;;;;;5053969;28;20395;-74
2021/12/25 04:24:08;;;;;;;1.50;0.63;;;13.80;62.80;;;;;;5052891;28;20057;-74
2021/12/25 04:26:38;;;;;;;0.63;0.63;;;;;;;;;;5052116;28;20081;-74
2021/12/25 04:29:18;;;;;;;0.60;0.60;;;13.60;61.00;;;;;;5052488;28;20053;-74
2021/12/25 04:32:08;;;;;;;1.55;0.70;;;13.90;62.80;;;;;;5052731;28;20060;-74
2021/12/25 04:47:50;;;;;;;1.00;0.73;;;13.90;61.80;;;;;;5052478;28;20056;-74
2021/12/25 05:02:40;;;;;;;0.70;0.70;;;13.80;62.90;;;;;;5069170;28;20055;-72
2021/12/25 05:05:13;;;;;;;1.63;0.70;;;13.70;62.80;;;;;;5067978;28;20053;-72
2021/12/25 05:07:41;;;;;;;0.60;0.60;;;13.00;53.50;;;;;;5067800;28;20432;-72
2021/12/25 05:10:08;;;;;;;1.20;0.68;;;13.90;57.60;;;;;;5059164;28;20448;-72
2021/12/25 05:12:35;;;;;;;1.02;0.73;;;13.70;62.80;;;;;;5047634;28;20410;-72
2021/12/25 05:15:02;;;;;;;0.77;0.70;;;;;;;;;;5047811;28;20132;-72
2021/12/25 05:17:29;;;;;;;1.35;0.70;;;;;;;;;;5047535;28;20498;-72
2021/12/25 05:19:58;;;;;;;0.73;0.55;;;;;;;;;;5047341;28;20545;-72
2021/12/25 05:22:25;;;;;;;0.75;0.70;;;13.90;62.50;;;;;;5047715;28;20568;-72
2021/12/25 05:24:53;;;;;;;0.85;0.65;;;13.40;62.30;;;;;;5047323;28;20132;-72
2021/12/25 05:27:20;;;;;;;0.85;0.68;;;;;;;;;;5062514;28;20045;-72
2021/12/25 05:29:47;;;;;;;1.30;0.80;;;;;;;;;;5067291;28;20550;-72
2021/12/25 05:32:15;;;;;;;1.00;0.77;;;;;;;;;;5067445;28;20060;-72
2021/12/25 05:34:43;;;;;;;1.48;0.90;;;;;;;;;;5067339;28;20450;-72
2021/12/25 05:37:09;;;;;;;1.17;0.70;;;13.30;62.40;;;;;;5066884;28;20135;-72
2021/12/25 05:39:36;;;;;;;0.90;0.70;;;13.90;62.60;;;;;;5067164;28;20136;-72
2021/12/25 05:42:05;;;;;;;1.08;0.70;;;13.90;58.30;;;;;;5066958;28;20060;-72
2021/12/25 05:44:31;;;;;;;1.17;0.70;;;14.00;62.50;;;;;;5065586;28;20469;-72
2021/12/25 05:46:59;;;;;;;0.95;0.80;;;13.90;62.20;;;;;;5066718;28;20099;-72
2021/12/25 05:49:25;;;;;;;1.38;0.90;;;13.50;62.00;;;;;;5066770;28;20139;-72
2021/12/25 05:51:52;;;;;;;1.10;0.80;;;;;;;;;;5066997;28;20155;-72
2021/12/25 05:54:19;;;;;;;0.88;0.70;;;13.70;56.70;;;;;;5066910;28;20132;-72
2021/12/25 05:56:46;;;;;;;0.82;0.70;;;13.90;62.40;;;;;;5066483;28;20129;-72
2021/12/25 05:59:14;;;;;;;0.80;0.70;;;14.00;62.40;;;;;;5066775;28;20710;-72
2021/12/25 06:01:41;;;;;;;1.33;0.80;;;14.60;62.80;;;;;;5058217;28;20084;-72
2021/12/25 06:04:07;;;;;;;0.70;0.65;;;13.70;60.00;;;;;;5054635;28;20068;-72
2021/12/25 06:06:34;;;;;;;0.70;0.70;;;13.80;59.30;;;;;;5053343;28;20132;-72
2021/12/25 06:09:01;;;;;;;1.48;0.80;;;13.90;62.10;;;;;;5053410;28;20136;-72
2021/12/25 06:11:31;;;;;;;0.82;0.63;;;13.80;60.80;;;;;;5053159;28;20052;-72
2021/12/25 06:14:08;;;;;;;0.82;0.75;;;;;;;;;;5053334;28;20111;-72
2021/12/25 06:16:36;;;;;;;1.38;0.52;;;13.70;62.00;;;;;;5052675;28;20175;-72
2021/12/25 06:19:02;;;;;;;1.10;0.75;;;13.70;62.20;;;;;;5054227;28;20557;-72
2021/12/25 06:21:29;;;;;;;2.22;0.90;;;13.70;62.20;;;;;;5053316;28;20124;-72
2021/12/25 06:23:56;;;;;;;0.80;0.70;;;13.60;55.00;;;;;;5052741;28;20529;-72
2021/12/25 06:26:23;;;;;;;0.93;0.70;;;13.80;62.00;;;;;;5052956;28;20061;-72
2021/12/25 06:28:49;;;;;;;0.68;0.57;;;13.80;62.30;;;;;;5053039;28;20132;-72
2021/12/25 06:31:16;;;;;;;0.70;0.63;;;13.70;56.00;;;;;;5052742;28;20132;-72
2021/12/25 06:33:44;;;;;;;1.02;0.77;;;13.80;62.20;;;;;;5052193;28;20545;-72
2021/12/25 06:36:11;;;;;;;1.02;0.70;;;13.90;62.10;;;;;;5052752;28;20057;-72
2021/12/25 06:38:39;;;;;;;0.88;0.70;;;13.80;62.10;;;;;;5053888;28;20132;-72
2021/12/25 06:41:07;;;;;;;0.77;0.73;;;;;;;;;;5052899;28;20053;-72
2021/12/25 06:43:34;;;;;;;0.88;0.70;;;13.90;62.10;;;;;;5052574;28;20100;-72
2021/12/25 06:46:00;;;;;;;1.35;0.77;;;13.80;56.90;;;;;;5052347;28;20063;-72
2021/12/25 06:48:27;;;;;;;2.38;0.90;;;13.70;61.80;;;;;;5052743;28;20498;-72
2021/12/25 06:50:55;;;;;;;1.25;0.70;;;13.70;53.00;;;;;;5050759;28;20136;-72
2021/12/25 06:53:22;;;;;;;0.95;0.80;;;13.80;61.90;;;;;;5052665;28;20140;-72
2021/12/25 06:55:49;;;;;;;0.60;0.60;;;;;;;;;;5052097;28;20131;-72
2021/12/25 06:58:16;;;;;;;0.77;0.63;;;13.80;61.90;;;;;;5052405;28;20136;-72
2021/12/25 07:00:43;;;;;;;0.80;0.80;;;;;;;;;;5052359;28;20127;-72
2021/12/25 07:03:10;;;;;;;2.70;0.77;;;13.90;62.00;;;;;;5052516;28;20140;-72
2021/12/25 07:05:37;;;;;;;1.17;0.77;;;;;;;;;;5052226;28;20052;-72
2021/12/25 07:08:05;;;;;;;0.68;0.68;;;13.80;62.00;;;;;;5050457;28;20131;-72
2021/12/25 07:10:32;;;;;;;1.20;0.80;;;13.50;61.80;;;;;;5052116;28;20084;-72
2021/12/25 07:12:59;;;;;;;1.08;0.82;;;13.30;61.40;;;;;;5051297;28;20140;-72
2021/12/25 07:15:25;;;;;;;0.65;0.63;;;13.70;57.30;;;;;;5052066;28;20143;-72
2021/12/25 07:17:52;;;;;;;1.10;0.70;;;13.90;61.70;;;;;;5052006;28;20141;-72
2021/12/25 07:20:19;;;;;;;0.77;0.70;;;13.80;61.70;;;;;;5052169;28;20077;-72
2021/12/25 07:22:46;;;;;;;0.98;0.50;;;13.70;59.40;;;;;;5052042;28;20464;-72
2021/12/25 07:25:14;;;;;;;1.52;0.60;;;13.50;61.50;;;;;;5050391;28;20135;-72
2021/12/25 07:27:40;;;;;;;0.90;0.80;;;13.80;61.30;;;;;;5051560;28;20141;-72
2021/12/25 07:30:08;;;;;;;0.95;0.75;;;13.80;61.90;;;;;;5051332;28;20501;-72
2021/12/25 07:32:36;;;;;;;0.60;0.60;;;13.80;61.90;;;;;;5051631;28;20550;-72
2021/12/25 07:35:03;;;;;;;0.77;0.77;;;13.40;61.50;;;;;;5051969;28;20106;-72
2021/12/25 07:37:30;;;;;;;0.77;0.70;;;13.90;61.90;;;;;;5043944;28;20144;-72
2021/12/25 07:39:57;;;;;;;1.15;0.80;;;13.40;61.60;;;;;;5031802;28;20487;-72
2021/12/25 07:42:25;;;;;;;1.08;0.75;;;13.70;52.60;;;;;;5031729;28;20063;-72
2021/12/25 07:44:55;;;;;;;0.70;0.70;;;;;;;;;;5031485;28;20140;-72
2021/12/25 07:47:23;;;;;;;1.35;0.90;;;;;;;;;;5031528;28;20126;-72
2021/12/25 07:49:50;;;;;;;1.58;0.70;;;;;;;;;;5031247;28;20065;-72
2021/12/25 07:52:17;;;;;;;0.95;0.60;;;13.80;61.70;;;;;;5041093;28;20132;-72
2021/12/25 07:54:43;;;;;;;2.00;0.80;;;13.80;61.60;;;;;;5051182;28;20137;-72
2021/12/25 07:57:10;;;;;;;1.10;0.60;;;13.70;57.00;;;;;;5051440;28;20099;-72
2021/12/25 07:59:38;;;;;;;2.70;0.90;;;13.70;61.70;;;;;;5050973;28;20136;-72
2021/12/25 08:02:05;;;;;;;0.63;0.63;;;13.70;61.70;;;;;;5051546;28;20155;-72
2021/12/25 08:04:32;;;;;;;1.75;0.85;;;13.40;61.20;;;;;;5051403;28;20149;-72
2021/12/25 08:06:59;;;;;;;2.63;0.90;;;;;;;;;;5051156;28;20135;-72
2021/12/25 08:09:30;;;;;;;6.10;1.30;;;13.60;60.90;;;;;;5050542;28;20144;-72
2021/12/25 08:11:57;;;;;;;1.52;0.80;;;;;;;;;;5050878;28;20045;-72
2021/12/25 08:14:25;;;;;;;3.13;0.90;;;13.50;60.90;;;;;;5051289;28;20140;-71
2021/12/25 08:16:54;;;;;;;1.23;0.82;;;13.80;61.30;;;;;;5050926;28;20093;-72
2021/12/25 08:19:21;;;;;;;1.25;0.95;;;13.50;55.60;;;;;;5051080;28;20143;-72
2021/12/25 08:21:48;;;;;;;1.98;0.70;;;13.70;61.30;;;;;;5050021;28;20053;-72
2021/12/25 08:24:15;;;;;;;2.58;0.95;;;;;;;;;;5047847;28;20494;-72
2021/12/25 08:26:42;;;;;;;0.70;0.70;;;13.60;61.10;;;;;;5049761;28;20140;-72
2021/12/25 08:29:08;;;;;;;1.73;0.90;;;13.70;61.20;;;;;;5050546;28;20183;-72
2021/12/25 08:31:35;;;;;;;4.55;0.88;;;13.60;54.80;;;;;;5047280;28;20123;-72
2021/12/25 08:34:04;;;;;;;0.60;0.60;;;13.50;61.10;;;;;;5048742;28;20136;-72
2021/12/25 08:36:30;;;;;;;1.23;0.80;;;13.50;55.30;;;;;;5050048;28;20135;-72
2021/12/25 08:38:58;;;;;;;1.65;0.70;;;;;;;;;;5050324;28;20088;-72
2021/12/25 08:41:28;;;;;;;6.50;1.00;;;;;;;;;;5050439;28;20106;-72
2021/12/25 08:43:59;;;;;;;1.83;0.90;;;13.50;61.50;;;;;;5048016;28;20057;-72
2021/12/25 08:46:43;;;;;;;2.65;0.95;;;13.60;54.70;;;;;;5049948;28;20135;-72
2021/12/25 08:49:14;;;;;;;2.13;1.30;;;13.30;52.50;;;;;;5065724;28;20063;-72
2021/12/25 08:51:41;;;;;;;1.70;1.00;;;13.40;61.60;;;;;;5050587;28;20460;-69
2021/12/25 08:54:08;;;;;;;1.60;0.90;;;13.40;61.50;;;;;;5051223;28;20049;-72
2021/12/25 08:56:35;;;;;;;1.40;0.82;;;13.40;61.60;;;;;;5050095;28;20561;-73
2021/12/25 08:59:02;;;;;;;1.35;0.90;;;;;;;;;;5049700;28;20133;-73
2021/12/25 09:01:29;;;;;;;1.55;0.98;;;13.60;61.60;;;;;;5044796;28;20129;-71
2021/12/25 09:03:56;;;;;;;1.83;1.00;;;13.20;61.20;;;;;;5035132;28;20136;-72
2021/12/25 09:06:25;;;;;;;3.30;1.00;;;13.00;60.90;;;;;;5049908;28;20083;-72
2021/12/25 09:08:52;;;;;;;2.38;1.10;;;13.50;57.00;;;;;;5049856;28;20103;-72
2021/12/25 09:11:21;;;;;;;3.28;0.88;;;13.60;61.30;;;;;;5049793;28;20045;-72
2021/12/25 09:13:47;;;;;;;1.27;0.88;;;13.60;61.40;;;;;;5050182;28;20052;-72
2021/12/25 09:16:14;;;;;;;1.08;0.90;;;;;;;;;;5050080;28;20092;-73
2021/12/25 09:18:42;;;;;;;1.02;0.80;;;;;;;;;;5048975;28;20056;-76
2021/12/25 09:21:09;;;;;;;1.40;0.90;;;;;;;;;;5050109;28;20137;-75
2021/12/25 09:23:37;;;;;;;1.38;0.68;;;13.60;61.00;;;;;;5049486;28;20508;-75
2021/12/25 09:26:03;;;;;;;1.08;0.80;;;13.70;61.30;;;;;;5038456;28;20139;-76
2021/12/25 09:28:30;;;;;;;1.13;0.90;;;;;;;;;;5050080;28;20132;-75
2021/12/25 09:30:57;;;;;;;1.48;1.08;;;13.80;61.10;;;;;;5045922;28;20053;-76
2021/12/25 09:33:24;;;;;;;1.15;0.80;;;13.80;61.10;;;;;;5050071;28;20124;-76
2021/12/25 09:35:51;;;;;;;1.67;1.05;;;;;;;;;;5051133;28;20095;-75
2021/12/25 09:38:18;;;;;;;1.80;0.82;;;13.60;61.00;;;;;;5053893;28;20140;-75
2021/12/25 09:40:46;;;;;;;0.73;0.70;;;13.70;51.90;;;;;;5053802;28;20080;-74
2021/12/25 09:43:17;;;;;;;1.35;0.85;;;;;;;;;;5052897;28;20089;-75
2021/12/25 09:45:43;;;;;;;2.30;1.00;;;13.70;60.00;;;;;;5068266;28;20056;-75
2021/12/25 09:48:10;;;;;;;0.90;0.80;;;13.80;61.20;;;;;;5053649;28;20140;-75
2021/12/25 09:50:37;;;;;;;1.35;0.95;;;;;;;;;;5053245;28;20621;-74
2021/12/25 09:53:06;;;;;;;0.88;0.75;;;13.80;61.20;;;;;;5053413;28;20084;-76
2021/12/25 09:55:33;;;;;;;1.02;0.80;;;13.30;60.80;;;;;;5052853;28;20141;-75
2021/12/25 09:58:03;;;;;;;2.05;1.08;;;13.50;57.20;;;;;;5049808;28;20149;-75
2021/12/25 10:00:30;;;;;;;1.45;0.80;;;;;;;;;;5053049;28;20053;-75
2021/12/25 10:02:57;;;;;;;1.02;0.95;;;;;;;;;;5049765;28;20132;-74
2021/12/25 10:05:25;;;;;;;1.58;0.90;;;13.60;54.40;;;;;;5050084;28;20080;-75
2021/12/25 10:08:01;;;;;;;1.52;0.90;;;13.70;51.70;;;;;;5053086;28;20132;-75
2021/12/25 10:10:40;;;;;;;1.50;0.80;;;13.80;56.40;;;;;;5047845;28;20497;-75
2021/12/25 10:13:17;;;;;;;1.58;1.00;;;13.90;60.90;;;;;;5033485;28;20435;-75
2021/12/25 10:15:44;;;;;;;1.13;1.02;;;13.70;60.70;;;;;;5052105;28;20079;-75
2021/12/25 10:18:11;;;;;;;0.90;0.80;;;13.70;60.80;;;;;;5052905;28;20081;-75
2021/12/25 10:20:38;;;;;;;1.83;0.90;;;;;;;;;;5052026;28;20045;-75
2021/12/25 10:23:07;;;;;;;1.30;0.80;;;;;;;;;;5047727;28;20450;-75
2021/12/25 10:25:38;;;;;;;2.13;1.00;;;13.90;59.90;;;;;;5049859;28;20132;-74
2021/12/25 10:28:08;;;;;;;1.50;0.95;;;13.40;60.70;;;;;;5047814;28;20049;-75
2021/12/25 10:30:45;;;;;;;1.23;0.90;;;13.80;60.80;;;;;;5032927;28;20091;-75
2021/12/25 10:33:23;;;;;;;1.17;0.70;;;13.80;51.40;;;;;;5051023;28;20087;-75
2021/12/25 10:35:50;;;;;;;1.52;0.80;;;;;;;;;;5052946;28;20063;-75
2021/12/25 10:38:17;;;;;;;1.38;0.80;;;13.70;60.60;;;;;;5052975;28;20143;-75
2021/12/25 10:40:45;;;;;;;1.05;0.70;;;;;;;;;;5052711;28;20059;-74
2021/12/25 10:43:22;;;;;;;0.88;0.88;;;13.80;60.40;;;;;;5033981;28;20505;-75
2021/12/25 10:45:59;;;;;;;0.80;0.70;;;14.40;51.50;;;;;;5048744;28;20191;-74
2021/12/25 10:48:27;;;;;;;0.98;0.88;;;13.80;60.50;;;;;;5051923;28;20049;-75
2021/12/25 10:50:54;;;;;;;2.42;0.77;;;13.20;60.00;;;;;;5052219;28;20060;-75
2021/12/25 10:53:26;;;;;;;0.75;0.70;;;13.90;51.20;;;;;;5052361;28;20053;-74
2021/12/25 10:55:53;;;;;;;0.75;0.70;;;;;;;;;;5051617;28;20049;-74
2021/12/25 10:58:23;;;;;;;1.58;0.90;;;13.80;60.10;;;;;;5047548;28;20132;-75
2021/12/25 11:00:51;;;;;;;1.38;0.80;;;14.60;60.60;;;;;;5052090;28;20128;-75
2021/12/25 11:03:18;;;;;;;0.70;0.70;;;;;;;;;;5052479;28;20139;-75
2021/12/25 11:05:46;;;;;;;1.45;0.90;;;14.00;60.10;;;;;;5051665;28;20040;-76
2021/12/25 11:08:15;;;;;;;0.63;0.60;;;13.90;60.10;;;;;;5051294;28;20135;-75
2021/12/25 11:10:43;;;;;;;0.88;0.70;;;14.00;50.90;;;;;;5051857;28;20132;-75
2021/12/25 11:13:17;;;;;;;1.05;0.80;;;14.10;53.00;;;;;;5052056;28;20132;-75
2021/12/25 11:15:45;;;;;;;1.45;0.80;;;14.00;58.20;;;;;;5043352;28;20068;-74
2021/12/25 11:18:13;;;;;;;0.90;0.80;;;14.00;59.40;;;;;;5035020;28;20135;-74
2021/12/25 11:20:41;;;;;;;3.05;0.90;;;13.40;53.60;;;;;;5051814;28;20052;-74
2021/12/25 11:23:08;;;;;;;1.45;0.90;;;14.00;50.80;;;;;;5051986;28;20071;-73
2021/12/25 11:25:36;;;;;;;2.42;0.80;;;14.10;60.10;;;;;;5043340;28;20060;-74
2021/12/25 11:28:06;;;;;;;0.68;0.60;;;14.00;50.90;;;;;;5051848;28;20126;-77
2021/12/25 11:30:34;;;;;;;1.42;0.80;;;14.10;60.40;;;;;;5040623;28;20390;-76
2021/12/25 11:33:02;;;;;;;1.25;0.90;;;14.00;50.90;;;;;;5031201;28;20049;-76
2021/12/25 11:35:31;;;;;;;1.70;0.90;;;14.10;60.10;;;;;;5046011;28;20148;-75
2021/12/25 11:37:58;;;;;;;1.35;0.80;;;;;;;;;;5051839;28;20055;-74
2021/12/25 11:40:27;;;;;;;1.85;1.00;;;14.00;60.40;;;;;;5051067;28;20055;-75
2021/12/25 11:42:56;;;;;;;1.45;1.10;;;;;;;;;;5051687;28;20521;-74
2021/12/25 11:45:26;;;;;;;1.83;1.10;;;13.90;51.00;;;;;;5051401;28;20052;-75
2021/12/25 11:47:53;;;;;;;1.40;1.00;;;;;;;;;;5051160;28;20049;-75
2021/12/25 11:50:24;;;;;;;1.85;1.30;;;13.90;51.10;;;;;;5051263;28;20139;-75
2021/12/25 11:53:05;;;;;;;2.50;1.40;;;13.80;51.00;;;;;;5044596;28;20052;-75
2021/12/25 11:56:13;;;;;;;2.08;1.25;;;13.80;60.20;;;;;;5030817;28;20049;-75
2021/12/25 11:58:43;;;;;;;1.60;1.20;;;13.80;61.00;;;;;;5031144;28;20103;-75
2021/12/25 12:01:28;;;;;;;2.03;1.40;;;13.90;60.60;;;;;;5031385;28;20055;-75
2021/12/25 12:03:56;;;;;;;2.58;1.60;;;13.80;51.30;;;;;;5030606;28;20079;-75
2021/12/25 12:06:59;;;;;;;3.03;1.73;;;13.60;53.00;;;;;;5030958;28;20061;-74
2021/12/25 12:09:27;;;;;;;3.15;1.92;;;13.80;60.70;;;;;;5045453;28;20063;-74
2021/12/25 12:12:10;;;;;;;3.85;2.00;;;13.70;60.60;;;;;;5050817;28;20076;-73
2021/12/25 12:14:37;;;;;;;2.83;1.67;;;;;;;;;;5049434;28;20127;-70
2021/12/25 12:17:06;;;;;;;3.78;2.00;;;13.70;60.70;;;;;;5045985;28;20056;-71
2021/12/25 12:19:43;;;;;;;2.67;1.70;;;13.80;60.60;;;;;;5047533;28;20059;-71
2021/12/25 12:22:46;;;;;;;3.90;2.00;;;13.70;60.50;;;;;;5051203;28;20049;-71
2021/12/25 12:25:28;;;;;;;4.78;2.20;;;13.70;51.30;;;;;;5050404;28;20132;-72
2021/12/25 12:27:56;;;;;;;3.35;2.10;;;13.70;51.30;;;;;;5030870;28;20065;-71
2021/12/25 12:30:40;;;;;;;3.40;2.17;;;13.80;60.50;;;;;;5035213;28;20136;-71
2021/12/25 12:33:35;;;;;;;3.35;2.10;;;13.70;51.30;;;;;;5049497;28;20049;-72
2021/12/25 12:36:02;;;;;;;4.07;2.00;;;;;;;;;;5049283;28;20053;-71
2021/12/25 12:38:37;;;;;;;3.50;2.03;;;13.80;60.50;;;;;;5041476;28;20470;-71
2021/12/25 12:41:12;;;;;;;2.78;1.90;;;13.40;60.50;;;;;;5047831;28;20136;-71
2021/12/25 12:44:00;;;;;;;2.78;1.70;;;13.60;60.60;;;;;;5050143;28;20084;-71
2021/12/25 12:46:55;;;;;;;3.00;1.83;;;13.70;60.50;;;;;;5047336;28;20051;-72
2021/12/25 12:49:22;;;;;;;2.47;1.70;;;;;;;;;;5063724;28;20569;-71
2021/12/25 12:51:49;;;;;;;2.50;1.50;;;13.80;60.50;;;;;;5049945;28;20561;-72
2021/12/25 12:54:42;;;;;;;3.60;1.77;;;13.60;50.90;;;;;;5050675;28;20059;-72
2021/12/25 12:57:08;;;;;;;4.45;2.10;;;13.60;58.70;;;;;;5050310;28;20140;-71
2021/12/25 12:59:45;;;;;;;3.65;2.10;;;12.90;54.60;;;;;;5035720;28;20140;-72
2021/12/25 13:02:12;;;;;;;3.67;1.85;;;13.50;60.30;;;;;;5030769;28;20085;-72
2021/12/25 13:04:43;;;;;;;6.85;2.10;;;13.10;52.60;;;;;;5030448;28;20507;-72
2021/12/25 13:07:11;;;;;;;3.70;2.10;;;13.50;50.90;;;;;;5030517;28;20057;-74
2021/12/25 13:09:43;;;;;;;4.97;2.00;;;;;;;;;;5030267;28;20065;-74
2021/12/25 13:12:25;;;;;;;3.90;2.03;;;13.20;60.10;;;;;;5032514;28;20506;-75
2021/12/25 13:14:58;;;;;;;4.72;2.22;;;13.50;60.60;;;;;;5035655;28;20140;-76
2021/12/25 13:17:25;;;;;;;5.28;2.10;;;13.70;60.60;;;;;;5052150;28;20057;-73
2021/12/25 13:19:52;;;;;;;3.92;1.98;;;13.60;60.50;;;;;;5054136;28;20470;-74
2021/12/25 13:22:19;;;;;;;4.70;2.20;;;;;;;;;;5054336;28;20501;-73
2021/12/25 13:24:47;;;;;;;4.97;2.20;;;13.40;60.20;;;;;;5053916;28;20567;-73
2021/12/25 13:27:19;;;;;;;4.60;2.17;;;13.50;60.50;;;;;;5054231;28;20053;-73
2021/12/25 13:29:46;;;;;;;3.40;2.03;;;;;;;;;;5053813;28;20084;-73
2021/12/25 13:32:13;;;;;;;3.85;1.90;;;13.80;60.90;;;;;;5044669;28;20056;-72
2021/12/25 13:34:40;;;;;;;3.40;2.00;;;13.40;58.60;;;;;;5046273;28;20128;-72
2021/12/25 13:37:13;;;;;;;3.70;1.98;;;;;;;;;;5053814;28;20560;-73
2021/12/25 13:39:43;;;;;;;4.38;2.20;;;;;;;;;;5053384;28;20506;-73
2021/12/25 13:42:11;;;;;;;3.22;2.00;;;12.90;60.50;;;;;;5053349;28;20045;-73
2021/12/25 13:44:40;;;;;;;3.63;1.92;;;13.30;60.90;;;;;;5053995;28;20060;-73
2021/12/25 13:47:18;;;;;;;4.93;1.92;;;13.10;60.90;;;;;;5052710;28;20061;-73
2021/12/25 13:49:46;;;;;;;2.97;1.90;;;13.10;51.30;;;;;;5053687;28;20135;-73
2021/12/25 13:52:14;;;;;;;3.63;1.92;;;13.20;61.10;;;;;;5053733;28;20131;-74
2021/12/25 13:54:42;;;;;;;2.83;1.75;;;13.20;60.90;;;;;;5053803;28;20143;-74
2021/12/25 13:57:09;;;;;;;4.05;1.85;;;;;;;;;;5053245;28;20132;-74
2021/12/25 13:59:36;;;;;;;3.25;1.83;;;13.20;57.10;;;;;;5053577;28;20252;-74
2021/12/25 14:02:06;;;;;;;2.92;1.80;;;13.10;60.80;;;;;;5053689;28;20132;-74
2021/12/25 14:04:33;;;;;;;3.53;1.90;;;13.00;60.70;;;;;;5053464;28;20106;-74
2021/12/25 14:07:00;;;;;;;2.60;1.52;;;;;;;;;;5034711;28;20049;-73
2021/12/25 14:09:27;;;;;;;4.85;1.60;;;13.20;60.40;;;;;;5032543;28;20129;-75
2021/12/25 14:11:54;;;;;;;3.20;1.60;;;12.90;60.10;;;;;;5032436;28;20133;-75
2021/12/25 14:14:22;;;;;;;5.45;2.05;;;13.00;60.50;;;;;;5032373;28;20566;-74